Time;durP1;ratioP1;P1;durP2;ratioP2;P2;SDS_P1;SDS_P2;PMS_P1;PMS_P2;Temp;Humidity;BMP_temperature;BMP_pressure;BME280_temperature;BME280_humidity;BME280_pressure;Samples;Min_cycle;Max_cycle;Signal;HPM_P1;HPM_P2
2022/01/19 00:01:31;;;;;;;0.35;0.35;;;5.70;99.90;;;;;;4973496;28;20545;-77
2022/01/19 00:03:57;;;;;;;0.20;0.20;;;5.70;99.90;;;;;;4978895;28;20030;-75
2022/01/19 00:06:22;;;;;;;0.80;0.80;;;5.70;99.90;;;;;;4992602;28;20110;-76
2022/01/19 00:08:49;;;;;;;0.63;0.47;;;5.70;99.90;;;;;;4992739;28;20030;-77
2022/01/19 00:11:16;;;;;;;0.15;0.15;;;5.70;99.90;;;;;;4992673;28;20105;-77
2022/01/19 00:13:42;;;;;;;1.35;0.52;;;5.80;99.90;;;;;;4992888;28;20049;-77
2022/01/19 00:16:08;;;;;;;3.22;1.98;;;5.70;99.90;;;;;;4990733;28;20058;-77
2022/01/19 00:18:34;;;;;;;0.35;0.32;;;5.80;99.90;;;;;;4992408;28;20033;-75
2022/01/19 00:21:00;;;;;;;1.00;0.90;;;5.80;99.90;;;;;;4992604;28;20068;-77
2022/01/19 00:23:26;;;;;;;0.80;0.80;;;5.70;99.90;;;;;;4991629;28;20050;-77
2022/01/19 00:25:54;;;;;;;1.45;1.25;;;5.70;99.90;;;;;;4992501;28;20038;-75
2022/01/19 00:28:20;;;;;;;2.47;1.42;;;5.70;99.90;;;;;;4992950;28;20030;-74
2022/01/19 00:30:46;;;;;;;0.40;0.40;;;5.70;99.90;;;;;;4991392;28;20422;-75
2022/01/19 00:33:13;;;;;;;0.40;0.40;;;5.70;99.90;;;;;;4992592;28;20022;-76
2022/01/19 00:35:39;;;;;;;0.30;0.30;;;5.70;99.90;;;;;;4992925;28;20023;-77
2022/01/19 00:38:06;;;;;;;0.73;0.70;;;5.70;99.90;;;;;;4995821;28;20038;-77
2022/01/19 00:40:33;;;;;;;0.88;0.88;;;5.70;99.90;;;;;;4995904;28;20058;-77
2022/01/19 00:42:58;;;;;;;0.00;0.00;;;5.70;99.90;;;;;;4995210;28;20432;-75
2022/01/19 00:45:24;;;;;;;0.32;0.32;;;5.70;99.90;;;;;;4995756;28;20022;-77
2022/01/19 00:47:50;;;;;;;0.60;0.60;;;5.70;99.90;;;;;;4995446;28;20026;-77
2022/01/19 00:50:23;;;;;;;0.00;0.00;;;5.70;99.90;;;;;;4995801;28;20029;-77
2022/01/19 00:52:51;;;;;;;3.63;1.10;;;5.60;99.90;;;;;;4995197;28;20026;-77
2022/01/19 00:55:17;;;;;;;0.70;0.68;;;5.70;99.90;;;;;;4995762;28;20030;-74
2022/01/19 00:57:43;;;;;;;0.50;0.50;;;5.60;99.90;;;;;;4995779;28;20097;-74
2022/01/19 01:00:16;;;;;;;3.30;1.30;;;5.60;99.90;;;;;;4995691;28;20498;-77
2022/01/19 01:02:41;;;;;;;;;;;5.60;99.90;;;;;;4996069;28;20027;-77
2022/01/19 01:05:08;;;;;;;2.45;1.20;;;5.60;99.90;;;;;;4994393;28;19913;-77
2022/01/19 01:16:00;;;;;;;0.45;0.45;;;5.60;99.90;;;;;;5615709;22;20507;-84
2022/01/19 01:18:34;;;;;;;0.63;0.63;;;5.60;99.90;;;;;;4984486;28;20019;-81
2022/01/19 01:21:00;;;;;;;0.22;0.22;;;5.60;99.90;;;;;;4974213;28;20027;-82
2022/01/19 01:23:29;;;;;;;0.00;0.00;;;5.60;99.90;;;;;;4974741;28;20055;-81
2022/01/19 01:25:55;;;;;;;0.20;0.20;;;5.50;99.90;;;;;;4975477;28;20394;-81
2022/01/19 01:28:21;;;;;;;0.30;0.30;;;5.60;99.90;;;;;;4975276;28;20034;-81
2022/01/19 01:30:47;;;;;;;0.25;0.25;;;5.60;99.90;;;;;;4976301;28;20102;-82
2022/01/19 01:33:13;;;;;;;1.25;1.15;;;5.60;99.90;;;;;;4976581;28;20085;-85
2022/01/19 01:35:39;;;;;;;0.63;0.55;;;5.60;99.90;;;;;;4975032;28;20030;-81
2022/01/19 01:38:07;;;;;;;0.73;0.73;;;5.60;99.90;;;;;;4976075;28;20042;-81
2022/01/19 01:40:35;;;;;;;0.00;0.00;;;5.60;99.90;;;;;;4975945;28;20048;-81
2022/01/19 01:43:03;;;;;;;0.47;0.47;;;5.60;99.90;;;;;;4971295;28;20031;-81
2022/01/19 01:45:33;;;;;;;0.35;0.35;;;5.60;99.90;;;;;;4974863;28;20023;-81
2022/01/19 01:48:07;;;;;;;1.30;1.20;;;5.60;99.90;;;;;;4974720;28;20441;-84
2022/01/19 01:53:27;;;;;;;1.55;0.85;;;5.60;99.90;;;;;;4975522;28;20130;-85
2022/01/19 01:56:02;;;;;;;0.00;0.00;;;5.50;99.90;;;;;;4974354;28;20069;-82
2022/01/19 01:58:30;;;;;;;0.10;0.10;;;5.50;99.90;;;;;;4977389;28;20027;-81
2022/01/19 02:00:56;;;;;;;0.65;0.65;;;5.50;99.90;;;;;;4974519;28;20498;-84
2022/01/19 02:03:22;;;;;;;0.10;0.10;;;5.50;99.90;;;;;;4974420;28;20133;-81
2022/01/19 02:06:47;;;;;;;0.28;0.28;;;5.50;99.90;;;;;;4976089;28;20027;-82
2022/01/19 02:08:42;;;;;;;0.35;0.35;;;5.50;99.90;;;;;;4968061;28;20030;-81
2022/01/19 02:15:47;;;;;;;0.28;0.28;;;5.50;99.90;;;;;;4974814;28;20027;-81
2022/01/19 02:24:29;;;;;;;0.17;0.17;;;5.50;99.90;;;;;;4975906;28;20482;-81
2022/01/19 02:27:13;;;;;;;0.43;0.43;;;5.40;99.90;;;;;;4974437;28;20031;-82
2022/01/19 02:40:39;;;;;;;0.73;0.73;;;5.30;99.90;;;;;;4988028;28;20078;-81
2022/01/19 02:43:10;;;;;;;1.95;1.25;;;5.30;99.90;;;;;;4973836;28;20030;-81
2022/01/19 02:51:07;;;;;;;1.00;0.80;;;5.20;99.90;;;;;;4974797;28;20452;-82
2022/01/19 02:53:36;;;;;;;0.90;0.75;;;5.10;99.90;;;;;;4973036;28;20498;-81
2022/01/19 02:56:08;;;;;;;0.40;0.32;;;5.10;99.90;;;;;;4974391;28;20023;-85
2022/01/19 02:58:40;;;;;;;0.03;0.03;;;5.10;99.90;;;;;;4973924;28;20364;-81
2022/01/19 03:09:18;;;;;;;0.55;0.35;;;5.00;99.90;;;;;;4975839;28;20033;-81
2022/01/19 03:11:43;;;;;;;3.33;1.15;;;5.00;99.90;;;;;;4974528;28;20482;-82
2022/01/19 03:14:09;;;;;;;0.80;0.80;;;5.00;99.90;;;;;;4974201;28;20035;-82
2022/01/19 03:16:35;;;;;;;0.10;0.10;;;5.00;99.90;;;;;;4973192;28;20058;-81
2022/01/19 03:19:03;;;;;;;0.20;0.20;;;5.00;99.90;;;;;;4972942;28;20089;-85
2022/01/19 03:21:28;;;;;;;0.57;0.57;;;5.00;99.90;;;;;;4974507;28;20061;-82
2022/01/19 03:23:54;;;;;;;0.40;0.40;;;5.00;99.90;;;;;;4972920;28;20034;-82
2022/01/19 03:26:20;;;;;;;0.65;0.65;;;4.90;99.90;;;;;;4973034;28;20038;-82
2022/01/19 03:28:46;;;;;;;0.77;0.77;;;5.00;99.90;;;;;;4974245;28;20027;-82
2022/01/19 03:31:11;;;;;;;0.38;0.38;;;5.00;99.90;;;;;;4974698;28;20031;-82
2022/01/19 03:33:37;;;;;;;0.10;0.10;;;5.00;99.90;;;;;;4973102;28;20027;-82
2022/01/19 03:36:03;;;;;;;1.55;1.23;;;4.90;99.90;;;;;;4975516;28;20126;-82
2022/01/19 03:38:29;;;;;;;0.25;0.17;;;4.90;99.90;;;;;;4974349;28;20038;-82
2022/01/19 03:40:54;;;;;;;0.25;0.25;;;4.90;99.90;;;;;;4980987;28;20035;-82
2022/01/19 03:43:20;;;;;;;1.08;0.98;;;4.90;99.90;;;;;;4974504;28;20031;-82
2022/01/19 03:45:52;;;;;;;0.20;0.20;;;4.90;99.90;;;;;;4972088;28;20103;-82
2022/01/19 03:48:45;;;;;;;1.95;0.35;;;4.90;99.90;;;;;;4973195;28;20034;-82
2022/01/19 03:51:06;;;;;;;0.00;0.00;;;4.90;99.90;;;;;;4973675;28;20031;-82
2022/01/19 03:53:32;;;;;;;3.03;0.77;;;4.90;99.90;;;;;;4972340;28;20030;-82
2022/01/19 03:55:58;;;;;;;1.55;1.10;;;4.90;99.90;;;;;;4974483;28;20086;-82
2022/01/19 03:58:24;;;;;;;0.13;0.08;;;4.90;99.90;;;;;;4972919;28;20022;-82
2022/01/19 04:00:54;;;;;;;3.30;1.10;;;4.90;99.90;;;;;;4975654;28;20479;-85
2022/01/19 04:03:25;;;;;;;0.85;0.85;;;4.90;99.90;;;;;;4972772;28;20022;-82
2022/01/19 04:06:03;;;;;;;0.93;0.90;;;4.90;99.90;;;;;;4973952;28;20051;-82
2022/01/19 04:08:29;;;;;;;0.65;0.60;;;4.90;99.90;;;;;;4975631;28;20019;-82
2022/01/19 04:10:54;;;;;;;1.15;1.10;;;4.90;99.90;;;;;;4973148;28;20115;-86
2022/01/19 04:14:21;;;;;;;1.90;1.20;;;4.90;99.90;;;;;;4978842;28;20035;-85
2022/01/19 04:16:09;;;;;;;1.30;0.88;;;4.90;99.90;;;;;;4970815;28;20138;-82
2022/01/19 04:18:35;;;;;;;0.00;0.00;;;4.90;99.90;;;;;;4976592;28;20477;-81
2022/01/19 04:21:02;;;;;;;0.15;0.15;;;4.90;99.90;;;;;;4985272;28;20019;-82
2022/01/19 04:23:28;;;;;;;0.10;0.10;;;4.90;99.90;;;;;;4972882;28;20023;-82
2022/01/19 04:25:53;;;;;;;3.30;1.55;;;4.90;99.90;;;;;;4957967;28;20031;-85
2022/01/19 04:28:19;;;;;;;13.15;1.27;;;4.90;99.90;;;;;;4974314;28;20038;-81
2022/01/19 04:30:45;;;;;;;0.10;0.10;;;4.90;99.90;;;;;;4958008;28;20031;-82
2022/01/19 04:33:21;;;;;;;0.63;0.63;;;4.90;99.90;;;;;;4958084;28;20027;-82
2022/01/19 04:35:52;;;;;;;0.10;0.10;;;4.90;99.90;;;;;;4975489;28;20050;-82
2022/01/19 04:54:11;;;;;;;0.73;0.73;;;4.90;99.90;;;;;;4978026;28;20023;-82
2022/01/19 05:01:33;;;;;;;0.38;0.38;;;5.00;99.90;;;;;;4983878;28;20103;-85
2022/01/19 05:05:50;;;;;;;0.52;0.43;;;5.00;99.90;;;;;;4976545;28;20034;-82
2022/01/19 05:13:38;;;;;;;0.80;0.80;;;5.00;99.90;;;;;;4976798;28;20141;-82
2022/01/19 05:16:05;;;;;;;0.22;0.22;;;5.00;99.90;;;;;;4976000;28;20070;-82
2022/01/19 05:18:31;;;;;;;2.05;0.82;;;4.90;99.90;;;;;;4975084;28;20066;-81
2022/01/19 05:20:57;;;;;;;0.90;0.68;;;5.00;99.90;;;;;;4976919;28;20086;-82
2022/01/19 05:23:23;;;;;;;3.05;1.20;;;5.00;99.90;;;;;;4974421;28;20126;-82
2022/01/19 05:25:49;;;;;;;0.20;0.20;;;5.00;99.90;;;;;;4975012;28;20159;-82
2022/01/19 05:28:15;;;;;;;0.15;0.15;;;5.00;99.90;;;;;;4977026;28;20077;-81
2022/01/19 05:30:41;;;;;;;1.17;1.17;;;5.10;99.90;;;;;;4974836;28;20118;-81
2022/01/19 05:33:07;;;;;;;0.15;0.15;;;5.10;99.90;;;;;;4975034;28;20525;-81
2022/01/19 05:35:32;;;;;;;0.45;0.45;;;5.10;99.90;;;;;;4975224;28;20133;-81
2022/01/19 05:37:58;;;;;;;0.20;0.20;;;5.10;99.90;;;;;;4974904;28;20403;-81
2022/01/19 05:40:24;;;;;;;0.28;0.28;;;5.10;99.90;;;;;;4976999;28;20070;-81
2022/01/19 05:42:50;;;;;;;1.35;0.47;;;5.10;99.90;;;;;;4974878;28;20051;-85
2022/01/19 05:45:17;;;;;;;1.90;1.73;;;5.10;99.90;;;;;;4975864;28;20518;-81
2022/01/19 05:47:45;;;;;;;0.80;0.80;;;5.10;99.90;;;;;;4976685;28;20033;-81
2022/01/19 05:50:11;;;;;;;1.15;1.00;;;5.10;99.90;;;;;;4976240;28;20042;-81
2022/01/19 05:52:37;;;;;;;0.43;0.43;;;5.10;99.90;;;;;;4974593;28;20506;-81
2022/01/19 05:55:03;;;;;;;0.10;0.10;;;5.10;99.90;;;;;;4974016;28;20027;-81
2022/01/19 05:57:29;;;;;;;0.57;0.57;;;5.10;99.90;;;;;;4974204;28;20027;-82
2022/01/19 05:59:55;;;;;;;0.70;0.70;;;5.10;99.90;;;;;;4991663;28;20122;-82
2022/01/19 06:02:20;;;;;;;0.40;0.40;;;5.10;99.90;;;;;;4981499;28;20035;-82
2022/01/19 06:04:46;;;;;;;0.25;0.25;;;5.10;99.90;;;;;;4974349;28;20030;-85
2022/01/19 06:07:12;;;;;;;0.68;0.68;;;5.10;99.90;;;;;;4980211;28;20011;-82
2022/01/19 06:12:14;;;;;;;0.93;0.68;;;5.10;99.90;;;;;;4975719;28;20526;-82
2022/01/19 06:14:44;;;;;;;0.35;0.35;;;5.10;99.90;;;;;;4974170;28;20429;-82
2022/01/19 06:17:12;;;;;;;1.77;1.20;;;5.10;99.90;;;;;;4974161;28;20047;-82
2022/01/19 06:19:38;;;;;;;0.43;0.32;;;5.00;99.90;;;;;;4973924;28;20097;-81
2022/01/19 06:22:04;;;;;;;1.15;1.10;;;5.00;99.90;;;;;;4971403;28;20019;-82
2022/01/19 06:24:30;;;;;;;0.05;0.05;;;5.00;99.90;;;;;;4970672;28;20031;-82
2022/01/19 06:26:56;;;;;;;0.22;0.22;;;5.10;99.90;;;;;;4965316;28;20030;-85
2022/01/19 06:29:22;;;;;;;0.75;0.75;;;5.10;99.90;;;;;;4974702;28;20022;-81
2022/01/19 06:31:48;;;;;;;0.38;0.38;;;5.10;99.90;;;;;;4973878;28;20034;-82
2022/01/19 06:34:15;;;;;;;0.50;0.50;;;5.10;99.90;;;;;;4981140;28;20042;-81
2022/01/19 06:36:40;;;;;;;0.35;0.35;;;5.00;99.90;;;;;;4973351;28;20379;-81
2022/01/19 06:39:07;;;;;;;0.55;0.55;;;5.00;99.90;;;;;;4973503;28;20037;-81
2022/01/19 06:41:32;;;;;;;2.55;1.63;;;5.00;99.90;;;;;;4978025;28;20094;-84
2022/01/19 06:43:58;;;;;;;0.43;0.43;;;5.00;99.90;;;;;;4982141;28;20458;-84
2022/01/19 06:46:24;;;;;;;0.73;0.73;;;5.00;99.90;;;;;;4976944;28;20406;-82
2022/01/19 06:48:51;;;;;;;0.00;0.00;;;5.00;99.90;;;;;;4971532;28;20027;-82
2022/01/19 06:51:16;;;;;;;0.43;0.43;;;5.00;99.90;;;;;;4973056;28;20027;-83
2022/01/19 06:53:42;;;;;;;0.55;0.55;;;5.00;99.90;;;;;;4972824;28;20089;-81
2022/01/19 06:56:08;;;;;;;0.00;0.00;;;5.00;99.90;;;;;;4974042;28;20030;-85
2022/01/19 06:58:34;;;;;;;0.75;0.75;;;5.00;99.90;;;;;;4976035;28;20034;-82
2022/01/19 07:00:59;;;;;;;0.55;0.55;;;5.00;99.90;;;;;;4972645;28;20049;-85
2022/01/19 07:03:25;;;;;;;0.93;0.93;;;5.00;99.90;;;;;;4974588;28;20070;-82
2022/01/19 07:05:51;;;;;;;1.95;0.98;;;5.00;99.90;;;;;;4975784;28;20117;-84
2022/01/19 07:08:17;;;;;;;0.10;0.10;;;5.00;99.90;;;;;;4972862;28;20061;-82
2022/01/19 07:10:43;;;;;;;0.52;0.52;;;5.00;99.90;;;;;;4970115;28;20054;-82
2022/01/19 07:13:08;;;;;;;0.77;0.77;;;5.00;99.90;;;;;;4970088;28;20038;-85
2022/01/19 07:15:40;;;;;;;0.13;0.13;;;5.00;99.90;;;;;;4974829;28;20061;-80
2022/01/19 07:18:06;;;;;;;0.50;0.50;;;5.00;99.90;;;;;;4972195;28;20031;-83
2022/01/19 07:20:33;;;;;;;1.00;1.00;;;5.00;99.90;;;;;;4972423;28;20037;-85
2022/01/19 07:23:01;;;;;;;1.35;1.25;;;5.00;99.90;;;;;;4972547;28;20054;-85
2022/01/19 07:25:28;;;;;;;1.60;1.08;;;5.00;99.90;;;;;;4993067;28;20014;-84
2022/01/19 07:27:53;;;;;;;0.00;0.00;;;4.90;99.90;;;;;;4987562;28;20015;-84
2022/01/19 07:30:19;;;;;;;0.50;0.50;;;5.00;99.90;;;;;;4966757;28;20027;-85
2022/01/19 07:32:48;;;;;;;0.10;0.10;;;5.00;99.90;;;;;;4971946;28;20035;-82
2022/01/19 07:35:14;;;;;;;0.22;0.22;;;5.00;99.90;;;;;;4971559;28;20038;-85
2022/01/19 07:37:40;;;;;;;0.13;0.13;;;5.00;99.90;;;;;;4971894;28;20442;-82
2022/01/19 07:40:10;;;;;;;0.22;0.22;;;5.00;99.90;;;;;;4973020;28;20054;-85
2022/01/19 07:42:35;;;;;;;1.55;1.27;;;5.00;99.90;;;;;;4974578;28;20031;-82
2022/01/19 07:45:01;;;;;;;1.65;0.73;;;5.00;99.90;;;;;;5000951;28;20033;-82
2022/01/19 07:47:28;;;;;;;0.60;0.40;;;5.10;99.90;;;;;;4988916;28;20027;-82
2022/01/19 07:49:54;;;;;;;0.93;0.93;;;5.00;99.90;;;;;;4976502;28;20439;-82
2022/01/19 07:52:21;;;;;;;0.50;0.50;;;5.00;99.90;;;;;;4975672;28;20027;-82
2022/01/19 07:54:47;;;;;;;0.73;0.73;;;5.00;99.90;;;;;;4975698;28;20082;-82
2022/01/19 07:57:12;;;;;;;1.63;1.52;;;5.00;99.90;;;;;;4976624;28;20031;-82
2022/01/19 07:59:38;;;;;;;0.40;0.40;;;5.10;99.90;;;;;;4975814;28;20117;-82
2022/01/19 08:02:04;;;;;;;0.10;0.10;;;5.10;99.90;;;;;;4970069;28;20031;-88
2022/01/19 08:04:30;;;;;;;3.72;0.82;;;5.00;99.90;;;;;;4975068;28;20037;-80
2022/01/19 08:06:56;;;;;;;1.10;0.93;;;5.10;99.90;;;;;;4962922;28;20035;-83
2022/01/19 08:09:25;;;;;;;11.68;0.85;;;5.00;99.90;;;;;;4965921;28;20027;-79
2022/01/19 08:11:51;;;;;;;2.80;1.75;;;5.10;99.90;;;;;;4976198;28;20603;-83
2022/01/19 08:14:17;;;;;;;1.80;0.95;;;5.00;99.90;;;;;;4971119;28;20122;-79
2022/01/19 08:16:43;;;;;;;0.00;0.00;;;5.10;99.90;;;;;;4970981;28;20121;-78
2022/01/19 08:19:08;;;;;;;0.90;0.75;;;5.10;99.90;;;;;;4973825;28;20077;-78
2022/01/19 08:21:34;;;;;;;0.10;0.10;;;5.00;99.90;;;;;;4974909;28;20058;-79
2022/01/19 08:24:00;;;;;;;0.43;0.43;;;5.00;99.90;;;;;;4972579;28;20106;-86
2022/01/19 08:26:25;;;;;;;0.63;0.63;;;5.00;99.90;;;;;;4977228;28;20027;-79
2022/01/19 08:28:51;;;;;;;0.55;0.55;;;5.10;99.90;;;;;;4973891;28;20410;-78
2022/01/19 08:31:17;;;;;;;0.77;0.77;;;5.10;99.90;;;;;;4970445;28;20055;-78
2022/01/19 08:33:43;;;;;;;0.55;0.55;;;5.10;99.90;;;;;;4971056;28;20027;-83
2022/01/19 08:36:08;;;;;;;0.28;0.28;;;5.20;99.90;;;;;;4972041;28;20469;-80
2022/01/19 08:38:34;;;;;;;0.20;0.20;;;5.20;99.90;;;;;;4956575;29;20019;-79
2022/01/19 08:41:00;;;;;;;0.30;0.30;;;5.20;99.90;;;;;;4968499;28;20398;-83
2022/01/19 08:43:26;;;;;;;13.63;0.80;;;5.20;99.90;;;;;;4973960;28;20025;-78
2022/01/19 08:45:53;;;;;;;0.75;0.65;;;5.20;99.90;;;;;;4974355;28;20553;-78
2022/01/19 08:48:19;;;;;;;1.90;1.25;;;5.10;99.90;;;;;;4973674;28;20047;-79
2022/01/19 08:50:45;;;;;;;5.63;1.48;;;5.20;99.90;;;;;;4960438;28;20118;-80
2022/01/19 08:53:12;;;;;;;0.30;0.30;;;5.10;99.90;;;;;;4970945;28;20122;-83
2022/01/19 08:55:38;;;;;;;0.10;0.10;;;5.20;99.90;;;;;;4975637;28;20106;-79
2022/01/19 08:58:05;;;;;;;0.10;0.10;;;5.20;99.90;;;;;;4974019;28;20109;-83
2022/01/19 09:00:31;;;;;;;0.68;0.68;;;5.20;99.90;;;;;;4974367;28;20030;-79
2022/01/19 09:02:57;;;;;;;0.75;0.75;;;5.20;99.90;;;;;;4962329;28;20035;-86
2022/01/19 09:05:23;;;;;;;0.57;0.57;;;5.30;99.90;;;;;;4958904;28;20119;-75
2022/01/19 09:07:49;;;;;;;0.45;0.45;;;5.30;99.90;;;;;;4967647;28;20101;-75
2022/01/19 09:10:16;;;;;;;4.53;0.52;;;5.30;99.90;;;;;;4966607;28;20042;-76
2022/01/19 09:12:43;;;;;;;0.00;0.00;;;5.30;99.90;;;;;;4975241;28;20158;-77
2022/01/19 09:15:10;;;;;;;0.90;0.90;;;5.30;99.90;;;;;;4956593;28;20568;-77
2022/01/19 09:17:36;;;;;;;4.55;0.47;;;5.30;99.90;;;;;;4959501;28;20592;-82
2022/01/19 09:20:05;;;;;;;0.10;0.10;;;5.30;99.90;;;;;;4966599;28;20082;-82
2022/01/19 09:22:31;;;;;;;2.78;1.45;;;5.30;99.90;;;;;;4955598;28;20118;-83
2022/01/19 09:24:57;;;;;;;0.60;0.60;;;5.40;99.90;;;;;;4955266;28;20046;-83
2022/01/19 09:27:23;;;;;;;0.28;0.13;;;5.40;99.90;;;;;;4972174;28;20425;-77
2022/01/19 09:29:48;;;;;;;0.08;0.08;;;5.40;99.90;;;;;;4982936;28;20037;-81
2022/01/19 09:32:14;;;;;;;0.28;0.22;;;5.40;99.90;;;;;;4973099;28;20114;-80
2022/01/19 09:34:47;;;;;;;0.25;0.25;;;5.30;99.90;;;;;;4972681;28;20526;-76
2022/01/19 09:37:13;;;;;;;0.00;0.00;;;5.40;99.90;;;;;;4970839;28;20026;-80
2022/01/19 09:39:39;;;;;;;0.57;0.57;;;5.40;99.90;;;;;;4968896;28;20034;-76
2022/01/19 09:42:06;;;;;;;0.00;0.00;;;5.40;99.90;;;;;;4969769;28;20027;-80
2022/01/19 09:44:32;;;;;;;0.38;0.17;;;5.40;99.90;;;;;;4965157;28;20024;-80
2022/01/19 09:46:58;;;;;;;0.38;0.38;;;5.40;99.90;;;;;;4968255;28;20041;-81
2022/01/19 09:49:24;;;;;;;0.43;0.43;;;5.40;99.90;;;;;;4963836;28;20035;-76
2022/01/19 09:51:52;;;;;;;1.25;0.90;;;5.50;99.90;;;;;;4972666;28;20037;-77
2022/01/19 09:54:22;;;;;;;0.52;0.47;;;5.50;99.90;;;;;;4971512;28;20585;-77
2022/01/19 09:56:48;;;;;;;0.00;0.00;;;5.50;99.90;;;;;;4960997;28;20035;-76
2022/01/19 09:59:15;;;;;;;0.00;0.00;;;5.50;99.90;;;;;;4967645;28;20055;-76
2022/01/19 10:01:55;;;;;;;0.00;0.00;;;5.50;99.90;;;;;;4973947;28;20031;-77
2022/01/19 10:04:26;;;;;;;0.20;0.15;;;5.60;99.90;;;;;;4955100;29;20478;-77
2022/01/19 10:07:16;;;;;;;0.00;0.00;;;5.60;99.90;;;;;;4963079;28;20109;-77
2022/01/19 10:09:52;;;;;;;0.40;0.40;;;5.60;99.90;;;;;;4962836;28;20490;-77
2022/01/19 10:18:19;;;;;;;0.10;0.10;;;5.80;99.90;;;;;;4962042;28;20034;-77
2022/01/19 10:20:47;;;;;;;0.10;0.10;;;5.80;99.90;;;;;;4961373;28;20018;-79
2022/01/19 10:23:33;;;;;;;0.47;0.47;;;5.90;99.90;;;;;;4955926;28;20023;-79
2022/01/19 10:25:59;;;;;;;1.17;0.60;;;5.90;99.90;;;;;;4970539;28;20027;-77
2022/01/19 10:28:25;;;;;;;0.00;0.00;;;6.00;99.90;;;;;;4967652;28;20062;-77
2022/01/19 10:31:01;;;;;;;0.20;0.20;;;6.00;99.90;;;;;;5106315;27;20509;-76
2022/01/19 10:33:26;;;;;;;0.32;0.32;;;6.00;99.90;;;;;;5099210;28;20024;-74
2022/01/19 10:35:52;;;;;;;0.65;0.47;;;6.00;99.90;;;;;;5099057;28;20026;-74
2022/01/19 10:38:26;;;;;;;0.22;0.22;;;6.00;99.90;;;;;;5099378;28;20053;-76
2022/01/19 10:41:04;;;;;;;0.00;0.00;;;6.10;99.90;;;;;;5099530;28;20093;-74
2022/01/19 10:43:38;;;;;;;0.38;0.38;;;6.00;99.90;;;;;;5107746;28;20102;-76
2022/01/19 10:46:16;;;;;;;0.20;0.20;;;6.00;99.90;;;;;;5099300;28;20161;-76
2022/01/19 10:48:43;;;;;;;0.65;0.65;;;6.10;99.90;;;;;;5089021;28;20429;-75
2022/01/19 10:51:11;;;;;;;0.10;0.10;;;6.10;99.90;;;;;;5106329;28;20023;-76
2022/01/19 10:53:38;;;;;;;0.32;0.32;;;6.20;99.90;;;;;;5114342;28;20050;-76
2022/01/19 10:56:05;;;;;;;0.22;0.22;;;6.20;99.90;;;;;;5110159;28;20042;-76
2022/01/19 10:58:32;;;;;;;1.58;1.48;;;6.20;99.90;;;;;;5109367;28;20016;-76
2022/01/19 11:00:58;;;;;;;0.68;0.55;;;6.30;99.90;;;;;;5105359;28;20035;-74
2022/01/19 11:03:28;;;;;;;1.10;0.88;;;6.30;99.90;;;;;;5106917;28;20023;-76
2022/01/19 11:05:59;;;;;;;0.43;0.43;;;6.20;99.90;;;;;;5106353;28;20028;-76
2022/01/19 11:08:26;;;;;;;0.30;0.30;;;6.30;99.90;;;;;;5104949;28;20012;-76
2022/01/19 11:10:54;;;;;;;0.90;0.90;;;6.30;99.90;;;;;;5106454;28;20031;-76
2022/01/19 11:13:30;;;;;;;0.38;0.38;;;6.30;99.90;;;;;;5107260;28;20136;-75
2022/01/19 11:15:58;;;;;;;0.30;0.30;;;6.30;99.90;;;;;;5107989;28;20031;-74
2022/01/19 11:18:29;;;;;;;0.22;0.22;;;6.30;99.90;;;;;;5105805;28;20024;-76
2022/01/19 11:20:57;;;;;;;0.90;0.73;;;6.40;99.90;;;;;;5107594;28;20444;-76
2022/01/19 11:23:45;;;;;;;1.77;1.38;;;6.40;99.90;;;;;;5107334;28;20501;-76
2022/01/19 11:26:16;;;;;;;0.38;0.38;;;6.40;99.90;;;;;;5100995;28;20077;-75
2022/01/19 11:28:47;;;;;;;0.55;0.55;;;6.40;99.90;;;;;;5106663;28;20016;-74
2022/01/19 11:31:16;;;;;;;1.02;1.02;;;6.40;99.90;;;;;;5100700;28;20028;-76
2022/01/19 11:33:45;;;;;;;1.25;0.82;;;6.40;99.90;;;;;;5084836;28;20498;-76
2022/01/19 11:36:34;;;;;;;0.45;0.45;;;6.40;99.90;;;;;;5104560;28;20042;-76
2022/01/19 11:39:06;;;;;;;4.03;1.27;;;6.40;99.90;;;;;;5089600;28;20031;-75
2022/01/19 11:41:45;;;;;;;1.50;0.93;;;6.50;99.90;;;;;;5095546;28;20059;-74
2022/01/19 11:44:17;;;;;;;4.88;2.40;;;6.50;99.90;;;;;;5088605;28;20574;-76
2022/01/19 11:46:49;;;;;;;2.03;1.92;;;6.50;99.90;;;;;;5066284;28;20135;-76
2022/01/19 11:49:18;;;;;;;0.77;0.75;;;6.60;99.90;;;;;;5084176;28;20518;-77
2022/01/19 11:51:55;;;;;;;0.05;0.05;;;6.60;99.90;;;;;;5078614;28;20547;-74
2022/01/19 11:54:29;;;;;;;1.00;1.00;;;6.70;99.90;;;;;;5077219;28;20029;-74
2022/01/19 11:57:04;;;;;;;0.40;0.40;;;6.80;99.90;;;;;;5075169;28;20348;-76
2022/01/19 11:59:47;;;;;;;1.00;0.95;;;6.80;99.90;;;;;;5086407;28;20032;-76
2022/01/19 12:02:24;;;;;;;0.47;0.17;;;6.70;99.90;;;;;;5083329;28;20403;-76
2022/01/19 12:05:02;;;;;;;6.72;1.13;;;6.80;99.90;;;;;;5083471;28;20039;-76
2022/01/19 12:07:53;;;;;;;1.10;1.00;;;6.70;99.90;;;;;;5072300;28;20028;-75
2022/01/19 12:10:39;;;;;;;0.08;0.08;;;6.60;99.90;;;;;;5082032;28;20040;-76
2022/01/19 12:16:17;;;;;;;0.40;0.40;;;6.50;99.90;;;;;;5088830;28;20031;-76
2022/01/19 12:18:52;;;;;;;0.38;0.38;;;6.50;99.90;;;;;;5088669;28;20047;-74
2022/01/19 12:21:20;;;;;;;0.93;0.93;;;6.50;99.90;;;;;;5080944;28;20392;-75
2022/01/19 12:23:47;;;;;;;0.52;0.52;;;6.60;99.90;;;;;;5089558;28;20032;-75
2022/01/19 12:26:13;;;;;;;0.22;0.22;;;6.70;99.90;;;;;;5075707;28;20067;-77
2022/01/19 12:28:52;;;;;;;0.63;0.63;;;6.70;99.90;;;;;;5088275;28;20666;-76
2022/01/19 12:31:37;;;;;;;1.55;0.63;;;6.70;99.90;;;;;;5074947;28;20059;-75
2022/01/19 12:34:02;;;;;;;0.40;0.40;;;6.70;99.90;;;;;;5090367;28;20025;-74
2022/01/19 12:36:43;;;;;;;0.35;0.35;;;6.70;99.90;;;;;;5091232;28;20027;-77
2022/01/19 12:39:26;;;;;;;0.82;0.80;;;6.80;99.90;;;;;;5095284;28;20053;-77
2022/01/19 12:42:14;;;;;;;0.88;0.88;;;6.80;99.90;;;;;;5075828;28;20032;-77
2022/01/19 12:44:47;;;;;;;0.40;0.40;;;6.90;99.90;;;;;;5089025;28;20485;-75
2022/01/19 12:47:28;;;;;;;0.17;0.17;;;6.80;99.90;;;;;;5092166;28;20038;-76
2022/01/19 12:49:56;;;;;;;0.28;0.28;;;6.90;99.90;;;;;;5087235;28;20114;-76
2022/01/19 12:52:27;;;;;;;0.47;0.47;;;7.00;99.90;;;;;;5086375;28;20024;-76
2022/01/19 12:54:54;;;;;;;0.52;0.52;;;7.00;99.90;;;;;;5091712;28;20036;-76
2022/01/19 12:57:21;;;;;;;0.93;0.88;;;7.00;99.90;;;;;;5091229;28;20016;-75
2022/01/19 12:59:50;;;;;;;0.17;0.17;;;6.90;99.90;;;;;;5090574;28;20089;-75
2022/01/19 13:02:20;;;;;;;0.30;0.30;;;6.80;99.90;;;;;;5088551;28;20020;-77
2022/01/19 13:04:47;;;;;;;0.10;0.10;;;6.90;99.90;;;;;;5088743;28;20028;-76
2022/01/19 13:07:24;;;;;;;0.50;0.50;;;7.00;99.90;;;;;;5094173;28;20024;-76
2022/01/19 13:10:26;;;;;;;2.03;0.93;;;7.10;99.90;;;;;;5095205;28;20035;-75
2022/01/19 13:15:21;;;;;;;0.38;0.38;;;7.30;99.90;;;;;;5090941;28;20016;-76
2022/01/19 13:17:52;;;;;;;1.55;0.82;;;7.30;99.90;;;;;;5088414;28;20024;-76
2022/01/19 13:20:23;;;;;;;0.45;0.45;;;7.20;99.90;;;;;;5086960;28;20023;-76
2022/01/19 13:22:55;;;;;;;0.88;0.88;;;7.30;99.90;;;;;;5086741;28;20090;-74
2022/01/19 13:25:23;;;;;;;0.32;0.32;;;7.20;99.90;;;;;;5077797;28;20078;-74
2022/01/19 13:27:51;;;;;;;0.65;0.65;;;7.20;99.90;;;;;;5086355;28;20032;-77
2022/01/19 13:30:17;;;;;;;0.30;0.30;;;7.20;99.90;;;;;;5085271;28;20125;-77
2022/01/19 13:32:43;;;;;;;0.77;0.77;;;7.20;99.90;;;;;;5088168;28;20025;-77
2022/01/19 13:35:10;;;;;;;0.43;0.43;;;7.10;99.90;;;;;;5062937;28;20032;-77
2022/01/19 13:37:55;;;;;;;4.85;0.95;;;7.20;99.90;;;;;;5087090;28;20038;-77
2022/01/19 13:40:23;;;;;;;0.32;0.32;;;7.20;99.90;;;;;;5083817;28;20032;-75
2022/01/19 13:42:56;;;;;;;1.13;0.65;;;7.10;99.90;;;;;;5085380;28;20037;-76
2022/01/19 13:46:13;;;;;;;0.52;0.52;;;7.10;99.90;;;;;;5082969;28;20060;-76
2022/01/19 13:50:45;;;;;;;1.40;0.82;;;7.30;99.90;;;;;;5087122;28;20437;-76
2022/01/19 13:53:12;;;;;;;0.57;0.57;;;7.30;99.90;;;;;;5084350;28;20034;-77
2022/01/19 13:55:38;;;;;;;0.15;0.15;;;7.30;99.90;;;;;;5083739;28;20031;-76
2022/01/19 13:58:11;;;;;;;0.38;0.32;;;7.30;99.90;;;;;;5094467;28;20038;-77
2022/01/19 14:00:52;;;;;;;6.43;1.40;;;7.40;99.90;;;;;;5085850;28;20027;-78
2022/01/19 14:03:19;;;;;;;0.00;0.00;;;7.40;99.90;;;;;;5087686;28;20062;-77
2022/01/19 14:05:48;;;;;;;0.00;0.00;;;7.50;99.90;;;;;;5083050;28;20028;-77
2022/01/19 14:08:27;;;;;;;0.32;0.32;;;7.50;99.90;;;;;;5078525;28;20399;-77
2022/01/19 14:10:52;;;;;;;0.10;0.10;;;7.40;99.90;;;;;;5087646;28;20371;-77
2022/01/19 14:13:27;;;;;;;0.30;0.30;;;7.40;99.90;;;;;;5085855;28;20070;-77
2022/01/19 14:15:54;;;;;;;0.40;0.40;;;7.50;99.90;;;;;;5085633;28;20091;-76
2022/01/19 14:18:20;;;;;;;0.75;0.75;;;7.50;99.90;;;;;;5085295;28;20581;-77
2022/01/19 14:21:04;;;;;;;0.20;0.20;;;7.50;99.90;;;;;;5086493;28;20024;-77
2022/01/19 14:23:30;;;;;;;0.68;0.68;;;7.60;99.90;;;;;;5070877;28;20063;-77
2022/01/19 14:26:11;;;;;;;0.82;0.57;;;7.70;99.90;;;;;;5085179;28;20052;-77
2022/01/19 14:28:38;;;;;;;3.40;1.27;;;7.70;99.90;;;;;;5084578;28;20024;-76
2022/01/19 14:31:12;;;;;;;0.00;0.00;;;7.70;99.90;;;;;;5089043;28;20036;-77
2022/01/19 14:33:48;;;;;;;1.85;0.95;;;7.80;99.90;;;;;;5090602;28;20016;-77
2022/01/19 14:36:22;;;;;;;0.00;0.00;;;7.80;99.90;;;;;;5088219;28;20035;-77
2022/01/19 14:38:48;;;;;;;0.03;0.03;;;7.80;99.90;;;;;;5085600;28;20454;-77